Time;durP1;ratioP1;P1;durP2;ratioP2;P2;SDS_P1;SDS_P2;PMS_P1;PMS_P2;Temp;Humidity;BMP_temperature;BMP_pressure;BME280_temperature;BME280_humidity;BME280_pressure;Samples;Min_cycle;Max_cycle;Signal;HPM_P1;HPM_P2
2022/06/20 00:02:12;;;;;;;14.63;5.60;;;;;;;15.62;72.88;98566.00;4909666;29;19962;-91
2022/06/20 00:04:38;;;;;;;16.48;5.05;;;;;;;15.58;72.92;98567.09;4936630;29;20039;-90
2022/06/20 00:07:04;;;;;;;15.67;4.27;;;;;;;15.73;73.02;98597.34;4906802;29;20050;-91
2022/06/20 00:12:00;;;;;;;8.35;4.43;;;;;;;15.54;73.92;98571.75;4938376;29;19929;-90
2022/06/20 00:14:26;;;;;;;11.80;4.80;;;;;;;15.48;74.23;98561.00;4952808;29;20585;-93
2022/06/20 00:16:53;;;;;;;13.52;4.10;;;;;;;15.42;74.16;98543.19;4936531;29;20043;-91
2022/06/20 00:19:19;;;;;;;15.97;5.00;;;;;;;15.67;75.10;98587.78;4904509;29;20047;-93
2022/06/20 00:21:45;;;;;;;10.05;4.57;;;;;;;15.44;74.92;98571.16;4921179;29;20298;-92
2022/06/20 00:24:11;;;;;;;13.27;4.70;;;;;;;15.28;74.54;98546.47;4935685;29;20124;-91
2022/06/20 00:26:40;;;;;;;13.60;4.88;;;;;;;15.48;75.08;98582.25;4936305;29;20048;-91
2022/06/20 00:29:08;;;;;;;15.10;4.85;;;;;;;15.16;75.88;98549.34;4917921;29;20078;-92
2022/06/20 00:34:03;;;;;;;14.20;4.75;;;;;;;15.18;76.42;98554.50;4936787;29;20044;-93
2022/06/20 00:36:30;;;;;;;10.65;4.70;;;;;;;15.14;76.94;98556.41;4920859;29;20046;-94
2022/06/20 00:41:30;;;;;;;11.35;4.65;;;;;;;15.28;77.17;98559.44;4939285;29;20044;-93
2022/06/20 00:43:57;;;;;;;18.38;5.45;;;;;;;14.80;77.48;98507.34;4921562;29;20058;-92
2022/06/20 00:46:51;;;;;;;11.63;4.60;;;;;;;15.11;77.33;98552.41;4933635;29;20054;-93
2022/06/20 00:49:47;;;;;;;15.30;4.90;;;;;;;15.36;78.24;98590.66;4926149;29;20055;-91
2022/06/20 00:52:40;;;;;;;10.18;4.47;;;;;;;14.93;78.02;98521.78;4951649;29;20568;-92
2022/06/20 00:55:37;;;;;;;13.63;4.95;;;;;;;15.19;78.28;98545.09;4936923;29;20051;-90
2022/06/20 00:58:57;;;;;;;8.63;4.45;;;;;;;15.14;77.95;98545.38;4936982;29;20046;-93
2022/06/20 01:01:43;;;;;;;17.08;5.03;;;;;;;15.14;77.93;98575.66;4937625;29;20421;-95
2022/06/20 01:04:38;;;;;;;11.77;5.43;;;;;;;14.65;78.31;98510.16;4956126;29;20062;-93
2022/06/20 01:07:31;;;;;;;13.50;4.95;;;;;;;14.71;78.23;98528.75;4941252;29;20058;-93
2022/06/20 01:10:19;;;;;;;11.48;5.60;;;;;;;15.30;79.23;98636.97;4942096;29;20054;-91
2022/06/20 01:13:13;;;;;;;10.77;4.95;;;;;;;15.03;78.73;98595.50;4940494;29;20046;-91
2022/06/20 01:16:13;;;;;;;12.40;4.63;;;;;;;15.25;78.91;98627.03;4941750;29;20082;-93
2022/06/20 01:19:04;;;;;;;13.73;4.97;;;;;;;14.70;79.05;98532.69;4920431;29;20058;-93
2022/06/20 01:21:49;;;;;;;11.93;5.78;;;;;;;14.98;79.10;98564.72;4943192;29;20114;-91
2022/06/20 01:24:57;;;;;;;13.43;5.82;;;;;;;14.52;79.99;98509.47;4942585;29;20527;-95
2022/06/20 01:27:50;;;;;;;14.45;6.10;;;;;;;14.59;80.29;98519.84;4956059;29;20744;-95
2022/06/20 01:30:42;;;;;;;10.18;5.13;;;;;;;14.67;80.39;98532.56;4954746;28;20058;-94
2022/06/20 01:33:28;;;;;;;9.65;6.00;;;;;;;14.89;80.24;98567.66;4955934;29;20062;-93
2022/06/20 01:39:22;;;;;;;17.95;5.28;;;;;;;14.78;80.15;98548.16;4955686;29;20058;-92
2022/06/20 01:42:18;;;;;;;8.45;4.95;;;;;;;15.27;79.66;98635.75;4935353;29;20053;-90
2022/06/20 01:45:57;;;;;;;10.65;5.35;;;;;;;14.71;79.58;98545.28;4941347;29;20053;-93
2022/06/20 01:48:19;;;;;;;12.43;5.15;;;;;;;14.97;78.32;98579.63;4954297;28;20062;-92
2022/06/20 01:51:16;;;;;;;10.55;5.18;;;;;;;14.74;78.97;98532.75;4940813;29;20073;-93
2022/06/20 01:54:03;;;;;;;10.38;4.90;;;;;;;14.90;76.97;98546.44;4946957;28;20051;-93
2022/06/20 01:56:51;;;;;;;;;;;;;;;15.25;77.12;98595.94;4957259;28;20075;-94
2022/06/20 02:00:02;;;;;;;8.38;4.60;;;;;;;15.00;77.52;98574.22;4939962;29;20392;-91
2022/06/20 02:02:53;;;;;;;9.57;3.92;;;;;;;14.71;77.40;98531.50;4934887;29;20063;-94
2022/06/20 02:05:38;;;;;;;8.57;3.83;;;;;;;14.54;76.83;98493.41;4939861;29;20125;-92
2022/06/20 02:11:46;;;;;;;6.28;3.88;;;;;;;15.06;77.08;98602.22;4954817;29;20047;-91
2022/06/20 02:14:35;;;;;;;9.73;4.45;;;;;;;15.10;77.79;98599.56;4895905;29;20068;-91
2022/06/20 02:17:35;;;;;;;11.25;4.00;;;;;;;14.85;77.80;98577.00;4864781;29;20108;-92
2022/06/20 02:20:25;;;;;;;13.15;5.05;;;;;;;14.82;78.34;98577.72;4882892;29;20052;-92
2022/06/20 02:23:10;;;;;;;7.78;4.55;;;;;;;14.59;78.15;98548.13;4882866;29;20502;-92
2022/06/20 02:25:56;;;;;;;8.77;4.35;;;;;;;14.68;78.20;98568.00;4883237;29;20112;-93
2022/06/20 02:28:49;;;;;;;9.63;4.28;;;;;;;14.85;77.79;98618.28;4875134;29;20063;-95
2022/06/20 02:34:24;;;;;;;9.77;4.47;;;;;;;14.87;78.23;98625.03;4901112;29;20428;-92
2022/06/20 02:40:02;;;;;;;8.68;3.90;;;;;;;14.39;76.99;98522.50;4897106;29;20057;-92
2022/06/20 02:42:52;;;;;;;11.07;4.25;;;;;;;14.25;77.34;98511.97;4883370;29;20069;-92
2022/06/20 02:48:27;;;;;;;9.57;4.40;;;;;;;14.38;78.44;98509.13;4901125;29;20052;-93
2022/06/20 02:51:17;;;;;;;13.18;5.00;;;;;;;14.23;79.27;98467.53;4931299;29;20055;-94
2022/06/20 02:54:05;;;;;;;8.07;4.30;;;;;;;14.63;79.29;98539.97;4943499;29;20420;-92
2022/06/20 02:57:00;;;;;;;10.73;4.57;;;;;;;14.69;79.16;98541.28;4944227;29;20524;-94
2022/06/20 02:59:54;;;;;;;7.00;4.18;;;;;;;14.25;78.95;98459.75;4944309;29;20456;-95
2022/06/20 03:02:42;;;;;;;9.23;4.70;;;;;;;14.57;79.65;98526.50;4930634;29;20093;-95
2022/06/20 03:05:31;;;;;;;11.40;4.95;;;;;;;14.55;79.80;98542.56;4953249;29;20046;-92
2022/06/20 03:08:19;;;;;;;12.95;4.78;;;;;;;14.66;79.78;98539.25;4957592;29;20062;-94
2022/06/20 03:11:07;;;;;;;13.60;4.75;;;;;;;14.70;80.07;98546.44;4943904;29;20049;-94
2022/06/20 03:13:59;;;;;;;11.60;4.85;;;;;;;14.33;78.94;98477.19;4931411;29;20050;-96
2022/06/20 03:17:08;;;;;;;10.70;4.97;;;;;;;14.49;79.16;98485.41;4940218;29;20124;-92
2022/06/20 03:20:13;;;;;;;9.57;5.32;;;;;;;14.53;79.18;98473.34;4943431;29;20141;-95
2022/06/20 03:23:21;;;;;;;11.32;4.63;;;;;;;15.24;79.06;98577.84;4961460;29;20058;-94
2022/06/20 03:26:17;;;;;;;10.75;4.88;;;;;;;14.61;78.95;98482.56;4946177;29;20146;-94
2022/06/20 03:29:19;;;;;;;12.57;4.83;;;;;;;14.76;77.92;98472.66;4947178;29;20573;-92
2022/06/20 03:32:05;;;;;;;13.27;4.35;;;;;;;14.62;77.90;98469.59;4927556;29;20055;-94
2022/06/20 03:35:21;;;;;;;16.17;5.07;;;;;;;14.68;78.29;98466.22;4932685;29;20098;-95
2022/06/20 03:38:11;;;;;;;9.65;4.80;;;;;;;14.66;78.77;98476.75;4938747;29;20119;-95
2022/06/20 03:40:56;;;;;;;11.65;4.82;;;;;;;14.68;79.28;98470.91;4943361;29;20055;-95
2022/06/20 03:43:47;;;;;;;12.68;4.78;;;;;;;15.12;78.03;98536.69;4945299;29;20098;-96
2022/06/20 03:46:49;;;;;;;20.13;5.70;;;;;;;14.95;78.14;98532.41;4962602;29;20070;-95
2022/06/20 03:50:18;;;;;;;16.47;4.60;;;;;;;14.70;78.00;98498.84;4949920;29;20049;-94
2022/06/20 03:53:15;;;;;;;8.50;5.00;;;;;;;14.69;77.69;98522.81;4930659;29;20078;-93
2022/06/20 03:56:53;;;;;;;7.53;4.10;;;;;;;14.60;77.46;98467.19;4961259;29;20125;-93
2022/06/20 03:59:43;;;;;;;11.75;4.20;;;;;;;15.09;77.12;98570.44;4944043;29;20528;-93
2022/06/20 04:02:45;;;;;;;9.32;3.85;;;;;;;14.96;76.85;98570.56;4957958;29;20074;-91
2022/06/20 04:05:41;;;;;;;12.00;4.93;;;;;;;14.86;77.51;98543.63;4938251;29;20209;-92
2022/06/20 04:11:50;;;;;;;14.95;4.53;;;;;;;14.89;77.63;98531.09;4938345;29;20062;-96
2022/06/20 04:15:01;;;;;;;11.40;4.35;;;;;;;15.17;77.48;98584.00;4923924;29;20429;-93
2022/06/20 04:21:25;;;;;;;12.68;4.32;;;;;;;14.99;76.75;98527.78;4955456;29;20082;-94
2022/06/20 04:24:28;;;;;;;10.82;4.63;;;;;;;15.23;76.66;98588.06;4936910;29;20106;-93
2022/06/20 04:27:31;;;;;;;11.25;4.72;;;;;;;15.20;76.88;98594.28;4941436;29;20094;-94
2022/06/20 04:31:09;;;;;;;8.60;4.43;;;;;;;14.63;76.81;98491.25;4955292;29;20117;-94
2022/06/20 04:34:03;;;;;;;10.85;4.32;;;;;;;15.09;76.79;98551.97;4878186;29;20116;-94
2022/06/20 04:37:10;;;;;;;12.05;4.00;;;;;;;15.40;76.44;98569.53;4871133;29;20056;-94
2022/06/20 04:40:04;;;;;;;13.05;4.32;;;;;;;15.46;75.69;98559.78;4881846;29;20071;-94
2022/06/20 04:43:02;;;;;;;9.37;4.10;;;;;;;15.46;75.23;98546.81;4879627;29;20092;-93
2022/06/20 04:45:59;;;;;;;9.15;3.42;;;;;;;15.39;73.53;98526.59;4879812;29;20870;-93
2022/06/20 04:48:49;;;;;;;13.97;4.10;;;;;;;15.12;73.23;98509.16;4884467;29;20562;-93
2022/06/20 04:51:37;;;;;;;11.50;3.53;;;;;;;15.47;73.40;98562.19;4881212;29;20792;-92
2022/06/20 04:54:23;;;;;;;12.98;3.85;;;;;;;15.24;73.21;98520.81;4865731;29;20085;-92
2022/06/20 04:57:28;;;;;;;8.38;3.95;;;;;;;15.10;73.86;98476.50;4861095;29;20052;-94
2022/06/20 05:00:22;;;;;;;10.38;4.55;;;;;;;15.08;72.81;98456.00;4881147;29;20057;-93
2022/06/20 05:03:11;;;;;;;13.77;4.45;;;;;;;15.28;73.50;98477.63;4877851;29;20147;-94
2022/06/20 05:05:59;;;;;;;14.15;4.70;;;;;;;16.04;73.27;98569.94;4874652;29;20144;-92
2022/06/20 05:08:51;;;;;;;10.40;3.80;;;;;;;15.73;73.43;98528.47;4905965;29;20098;-92
2022/06/20 05:11:42;;;;;;;6.35;4.13;;;;;;;15.71;73.61;98525.25;4954833;29;20059;-92
2022/06/20 05:14:37;;;;;;;13.23;3.72;;;;;;;15.92;71.90;98546.88;4911439;29;20171;-91
2022/06/20 05:17:27;;;;;;;11.88;3.95;;;;;;;15.85;72.48;98557.78;4929506;29;20203;-92
2022/06/20 05:20:28;;;;;;;8.68;4.10;;;;;;;15.56;71.68;98495.81;4954020;29;20138;-93
2022/06/20 05:23:21;;;;;;;10.02;3.80;;;;;;;15.56;71.66;98506.84;4940849;29;20054;-92
2022/06/20 05:26:10;;;;;;;8.25;4.05;;;;;;;15.81;71.21;98562.44;4952666;29;20046;-93
2022/06/20 05:28:57;;;;;;;10.05;3.70;;;;;;;15.68;72.38;98541.72;4916736;29;20098;-91
2022/06/20 05:31:55;;;;;;;9.73;4.10;;;;;;;15.94;72.28;98587.88;4940642;29;20058;-92
2022/06/20 05:34:50;;;;;;;9.60;3.88;;;;;;;15.64;71.99;98544.41;4927946;29;20085;-93
2022/06/20 05:37:35;;;;;;;8.80;3.63;;;;;;;15.91;71.17;98594.13;4953510;29;20133;-92
2022/06/20 05:40:29;;;;;;;11.45;3.78;;;;;;;15.78;71.44;98596.25;4937173;29;20133;-92
2022/06/20 05:42:56;;;;;;;9.55;3.92;;;;;;;15.41;71.19;98538.06;4913340;29;20047;-93
2022/06/20 05:45:25;;;;;;;13.20;4.90;;;;;;;15.46;72.26;98568.03;4921383;29;20043;-92
2022/06/20 05:47:56;;;;;;;10.70;4.07;;;;;;;15.55;71.64;98617.41;4921333;29;20043;-92
2022/06/20 05:50:32;;;;;;;11.25;4.03;;;;;;;15.10;72.82;98578.34;4920356;29;20039;-94
2022/06/20 05:53:01;;;;;;;9.52;4.35;;;;;;;15.33;73.49;98602.41;4933273;29;20139;-92
2022/06/20 05:55:38;;;;;;;19.25;4.50;;;;;;;15.43;73.16;98602.63;4920894;29;20035;-93
2022/06/20 05:58:11;;;;;;;16.17;4.47;;;;;;;15.52;73.55;98618.94;4908484;29;20111;-91
2022/06/20 06:00:43;;;;;;;9.48;3.78;;;;;;;15.26;73.37;98594.78;4919793;29;20043;-90
2022/06/20 06:03:18;;;;;;;12.50;3.92;;;;;;;15.71;73.21;98676.81;4942734;29;20122;-86
2022/06/20 06:05:49;;;;;;;16.67;4.10;;;;;;;15.87;71.75;98696.03;4936141;29;20171;-85
2022/06/20 06:08:35;;;;;;;11.65;3.58;;;;;;;15.83;71.45;98681.38;4968324;28;20432;-86
2022/06/20 06:11:21;;;;;;;15.10;4.30;;;;;;;15.77;72.20;98660.00;4948679;29;20102;-86
2022/06/20 06:13:54;;;;;;;9.75;3.88;;;;;;;15.67;70.92;98640.13;4937144;29;20075;-86
2022/06/20 06:19:35;;;;;;;9.65;3.45;;;;;;;15.81;71.51;98669.91;4954906;29;20035;-88
2022/06/20 06:22:21;;;;;;;9.05;3.80;;;;;;;15.68;71.76;98625.19;4905415;29;20398;-87
2022/06/20 06:24:53;;;;;;;12.48;3.42;;;;;;;15.84;70.84;98638.09;4951654;29;20090;-87
2022/06/20 06:27:24;;;;;;;9.98;3.88;;;;;;;15.90;72.35;98625.59;4952339;29;20047;-87
2022/06/20 06:30:02;;;;;;;7.38;3.53;;;;;;;15.96;70.98;98599.34;4955581;29;20051;-86
2022/06/20 06:32:43;;;;;;;15.25;4.72;;;;;;;16.33;70.86;98626.38;4943091;29;20039;-90
2022/06/20 06:35:55;;;;;;;9.05;3.50;;;;;;;16.53;70.56;98625.13;4955665;29;20047;-85
2022/06/20 06:38:54;;;;;;;13.93;3.47;;;;;;;16.47;68.74;98568.66;4934692;29;20462;-86
2022/06/20 06:41:29;;;;;;;13.68;3.60;;;;;;;16.99;68.30;98624.28;4948420;29;20039;-88
2022/06/20 06:43:58;;;;;;;13.52;3.88;;;;;;;16.83;67.96;98588.56;4956451;29;20039;-88
2022/06/20 06:46:32;;;;;;;11.55;3.85;;;;;;;17.04;66.48;98633.03;4926763;29;20049;-88
2022/06/20 06:49:19;;;;;;;11.63;4.20;;;;;;;16.96;67.70;98612.00;4938572;29;20528;-87
2022/06/20 06:52:05;;;;;;;11.57;3.95;;;;;;;17.25;67.61;98656.59;4933377;29;20129;-89
2022/06/20 06:54:46;;;;;;;13.70;3.70;;;;;;;17.29;66.29;98646.41;4954652;28;20469;-90
2022/06/20 06:57:39;;;;;;;16.00;4.78;;;;;;;17.16;66.72;98601.63;4939340;29;20047;-89
2022/06/20 07:00:05;;;;;;;12.15;3.65;;;;;;;17.54;64.79;98636.44;4903046;29;20048;-88
2022/06/20 07:02:39;;;;;;;14.83;4.20;;;;;;;17.54;64.59;98646.72;4923707;29;20048;-86
2022/06/20 07:05:14;;;;;;;17.52;3.88;;;;;;;17.47;64.58;98614.25;4917512;29;20047;-87
2022/06/20 07:07:48;;;;;;;15.32;4.15;;;;;;;17.56;63.55;98619.50;4885213;29;20045;-88
2022/06/20 07:10:42;;;;;;;16.40;3.92;;;;;;;17.89;62.98;98654.66;4900299;29;20032;-86
2022/06/20 07:13:23;;;;;;;22.45;4.53;;;;;;;17.93;63.60;98654.72;4883822;29;20047;-87
2022/06/20 07:15:55;;;;;;;13.93;4.15;;;;;;;17.66;62.21;98618.03;4900533;29;20139;-92
2022/06/20 07:18:47;;;;;;;11.95;4.05;;;;;;;17.58;61.55;98612.44;4916972;29;20125;-89
2022/06/20 07:21:17;;;;;;;13.13;3.67;;;;;;;17.74;62.44;98633.53;4917565;29;20104;-92
2022/06/20 07:23:48;;;;;;;9.35;3.45;;;;;;;17.76;62.35;98656.88;4901566;29;20048;-91
2022/06/20 07:26:18;;;;;;;14.93;4.30;;;;;;;17.53;62.36;98637.63;4884592;29;20076;-90
2022/06/20 07:28:52;;;;;;;14.85;4.13;;;;;;;17.53;61.27;98618.28;4902206;29;20040;-92
2022/06/20 07:31:21;;;;;;;14.63;4.07;;;;;;;17.95;61.42;98682.78;4917045;29;20055;-91
2022/06/20 07:34:01;;;;;;;19.30;3.92;;;;;;;17.73;60.83;98652.09;4901742;29;20044;-93
2022/06/20 07:36:33;;;;;;;14.90;4.13;;;;;;;17.87;61.14;98651.47;4919250;29;20130;-91
2022/06/20 07:39:05;;;;;;;10.82;3.97;;;;;;;17.93;59.80;98647.19;4907224;29;20039;-90
2022/06/20 07:41:37;;;;;;;16.98;4.55;;;;;;;18.16;60.04;98693.28;4939216;29;20039;-88
2022/06/20 07:44:23;;;;;;;14.18;3.95;;;;;;;17.98;60.79;98671.75;4922624;29;20050;-84
2022/06/20 07:46:56;;;;;;;12.25;4.18;;;;;;;17.63;59.67;98640.91;4943032;29;20073;-87
2022/06/20 07:49:40;;;;;;;13.15;4.07;;;;;;;17.72;61.46;98656.03;4938144;29;20043;-87
2022/06/20 07:52:32;;;;;;;13.80;3.63;;;;;;;17.81;59.84;98655.75;4955327;29;20069;-87
2022/06/20 07:55:07;;;;;;;17.02;3.80;;;;;;;17.75;60.09;98648.97;4954053;29;20066;-85
2022/06/20 07:57:40;;;;;;;10.10;3.47;;;;;;;17.76;60.12;98636.72;4954621;29;20054;-87
2022/06/20 08:00:18;;;;;;;16.05;4.00;;;;;;;18.17;58.51;98673.53;4938090;29;20149;-86
2022/06/20 08:02:56;;;;;;;9.73;3.30;;;;;;;17.96;60.93;98649.22;4936925;29;20090;-88
2022/06/20 08:05:34;;;;;;;;;;;;;;;18.28;61.02;98673.66;4944839;29;20110;-85
2022/06/20 08:08:22;;;;;;;12.05;4.40;;;;;;;18.21;60.32;98668.03;4954106;28;20431;-86
2022/06/20 08:10:56;;;;;;;9.70;3.63;;;;;;;18.08;58.83;98643.44;4950679;29;20051;-85
2022/06/20 08:13:42;;;;;;;22.35;4.07;;;;;;;18.08;59.86;98635.13;4954275;29;20098;-87
2022/06/20 08:16:18;;;;;;;7.03;3.25;;;;;;;18.59;60.44;98693.72;4938096;29;20047;-87
2022/06/20 08:18:44;;;;;;;17.60;4.65;;;;;;;18.56;56.13;98653.75;4949857;29;20116;-91
2022/06/20 08:21:21;;;;;;;15.18;4.30;;;;;;;18.76;56.56;98673.72;4926841;29;20070;-91
2022/06/20 08:24:02;;;;;;;22.88;4.15;;;;;;;18.92;57.04;98684.53;4954011;28;20044;-90
2022/06/20 08:26:34;;;;;;;16.42;4.32;;;;;;;18.98;56.65;98663.59;4937896;29;20097;-90
2022/06/20 08:29:09;;;;;;;11.65;3.47;;;;;;;19.28;56.05;98648.75;4953650;28;20386;-88
2022/06/20 08:31:50;;;;;;;18.23;3.47;;;;;;;19.37;56.37;98635.31;4923644;29;20042;-89
2022/06/20 08:34:39;;;;;;;15.55;3.88;;;;;;;19.45;55.18;98661.91;4921786;29;20428;-88
2022/06/20 08:37:25;;;;;;;9.80;3.38;;;;;;;19.50;54.77;98689.22;4954643;29;20054;-88
2022/06/20 08:40:09;;;;;;;13.98;3.63;;;;;;;19.49;54.80;98684.88;4936854;29;20079;-88
2022/06/20 08:43:04;;;;;;;19.88;4.40;;;;;;;19.46;55.68;98639.31;4953442;29;20098;-85
2022/06/20 08:46:08;;;;;;;16.33;9.85;;;;;;;19.71;53.47;98689.38;4954762;29;20046;-87
2022/06/20 08:48:41;;;;;;;12.10;4.15;;;;;;;19.88;53.62;98685.09;4937496;29;20504;-86
2022/06/20 08:51:26;;;;;;;12.57;4.00;;;;;;;20.05;52.23;98688.31;4953672;28;20042;-87
2022/06/20 08:54:32;;;;;;;14.98;3.80;;;;;;;20.03;52.91;98676.81;4954165;29;20484;-87
2022/06/20 08:57:03;;;;;;;9.93;3.95;;;;;;;20.10;53.49;98660.19;4952544;29;20043;-87
2022/06/20 08:59:51;;;;;;;14.60;3.08;;;;;;;20.40;51.18;98668.19;4931860;29;20039;-88
2022/06/20 09:02:44;;;;;;;25.85;3.50;;;;;;;20.39;51.60;98667.34;4952000;28;20054;-85
2022/06/20 09:05:52;;;;;;;14.68;3.97;;;;;;;20.47;49.61;98665.41;4954130;29;20051;-85
2022/06/20 09:08:28;;;;;;;12.65;3.67;;;;;;;20.45;48.84;98667.78;4953070;29;20086;-86
2022/06/20 09:11:21;;;;;;;12.40;3.50;;;;;;;20.55;51.63;98653.13;4944267;29;20576;-86
2022/06/20 09:14:01;;;;;;;10.50;3.20;;;;;;;20.82;50.55;98683.28;4954205;29;20043;-88
2022/06/20 09:16:36;;;;;;;6.68;3.58;;;;;;;20.81;50.13;98687.28;4936911;29;20039;-87
2022/06/20 09:19:23;;;;;;;12.30;3.33;;;;;;;20.64;49.88;98655.53;4954000;29;20047;-88
2022/06/20 09:22:19;;;;;;;16.10;3.35;;;;;;;20.84;49.07;98653.94;4938489;29;20047;-88
2022/06/20 09:25:19;;;;;;;10.25;3.17;;;;;;;20.97;49.69;98672.97;4920968;29;20051;-87
2022/06/20 09:28:01;;;;;;;11.90;3.25;;;;;;;21.16;50.60;98674.53;4917611;29;20095;-90
2022/06/20 09:30:49;;;;;;;32.42;4.15;;;;;;;21.41;49.36;98682.84;4934552;29;20118;-89
2022/06/20 09:33:27;;;;;;;21.27;3.90;;;;;;;21.46;46.29;98680.47;4937233;29;20504;-90
2022/06/20 09:36:25;;;;;;;31.50;4.93;;;;;;;21.27;41.88;98653.88;4952165;28;20047;-92
2022/06/20 09:39:18;;;;;;;17.35;4.20;;;;;;;21.18;43.05;98667.38;4952888;29;20102;-91
2022/06/20 09:42:17;;;;;;;10.55;3.20;;;;;;;21.05;44.14;98638.41;4947392;28;20541;-86
2022/06/20 09:44:52;;;;;;;14.35;2.70;;;;;;;21.01;45.80;98645.97;4940293;29;20035;-86
2022/06/20 09:47:50;;;;;;;13.88;2.90;;;;;;;21.16;45.28;98667.00;4952815;29;20043;-89
2022/06/20 09:50:40;;;;;;;14.35;3.42;;;;;;;21.18;44.49;98675.72;4913383;29;20450;-88
2022/06/20 09:53:29;;;;;;;10.45;3.08;;;;;;;21.21;43.70;98671.34;4935109;29;20047;-89
2022/06/20 09:55:56;;;;;;;13.43;2.90;;;;;;;21.38;47.67;98666.97;4936028;29;20051;-87
2022/06/20 09:58:40;;;;;;;10.80;3.00;;;;;;;21.41;44.17;98668.94;4936326;29;20565;-87
2022/06/20 10:01:22;;;;;;;12.68;3.15;;;;;;;21.49;42.32;98664.94;4954404;28;20116;-87
2022/06/20 10:04:10;;;;;;;20.33;3.55;;;;;;;21.66;42.97;98668.88;4923738;29;20460;-86
2022/06/20 10:06:59;;;;;;;22.27;3.85;;;;;;;21.46;40.64;98649.09;4951633;29;20413;-90
2022/06/20 10:09:44;;;;;;;9.52;2.90;;;;;;;21.52;42.33;98673.31;4951890;29;20102;-88
2022/06/20 10:12:36;;;;;;;10.38;3.03;;;;;;;21.41;41.45;98666.97;4947431;29;20135;-88
2022/06/20 10:15:39;;;;;;;14.65;2.75;;;;;;;21.35;38.37;98676.91;4952001;28;20121;-87
2022/06/20 10:18:21;;;;;;;8.60;2.63;;;;;;;21.39;40.88;98672.16;4936315;29;20151;-88
2022/06/20 10:21:05;;;;;;;10.95;2.80;;;;;;;21.43;41.34;98667.34;4912847;29;20403;-88
2022/06/20 10:23:57;;;;;;;14.38;2.70;;;;;;;21.31;41.95;98676.88;4912606;29;20052;-86
2022/06/20 10:26:45;;;;;;;9.75;3.45;;;;;;;21.10;40.87;98665.81;4860384;29;20093;-87
2022/06/20 10:29:24;;;;;;;16.00;2.72;;;;;;;21.26;39.63;98680.09;4894158;29;20051;-88
2022/06/20 10:31:52;;;;;;;6.80;2.50;;;;;;;21.20;39.00;98676.13;4894061;29;20414;-87
2022/06/20 10:34:56;;;;;;;11.30;2.70;;;;;;;21.15;37.43;98684.84;4897662;29;20051;-87
2022/06/20 10:37:32;;;;;;;9.95;2.60;;;;;;;21.10;39.59;98674.16;4912915;29;20040;-87
2022/06/20 10:40:09;;;;;;;6.95;2.55;;;;;;;21.08;39.64;98676.53;4897161;29;20123;-87
2022/06/20 10:43:07;;;;;;;12.48;2.58;;;;;;;21.06;41.71;98682.50;4912857;29;20043;-87
2022/06/20 10:45:58;;;;;;;8.02;2.30;;;;;;;20.87;39.87;98682.91;4896275;29;20044;-86
2022/06/20 10:48:25;;;;;;;9.60;2.70;;;;;;;20.82;41.11;98686.84;4912720;29;20048;-85
2022/06/20 10:51:14;;;;;;;15.02;2.47;;;;;;;20.84;42.26;98690.03;4912284;29;20083;-85
2022/06/20 10:54:09;;;;;;;14.85;3.05;;;;;;;20.79;39.57;98678.53;4912586;29;20532;-85
2022/06/20 10:56:43;;;;;;;10.50;2.58;;;;;;;20.95;41.78;98681.69;4893308;29;20091;-86
2022/06/20 10:59:52;;;;;;;22.27;3.05;;;;;;;20.96;40.04;98674.97;4942824;29;20531;-87
2022/06/20 11:02:33;;;;;;;11.57;2.72;;;;;;;20.80;44.19;98650.38;4951528;29;20091;-87
2022/06/20 11:05:10;;;;;;;14.38;2.88;;;;;;;20.96;41.35;98671.38;4922486;29;20051;-87
2022/06/20 11:07:43;;;;;;;20.60;3.33;;;;;;;20.87;39.75;98671.78;4939248;29;20046;-86
2022/06/20 11:10:35;;;;;;;8.30;2.63;;;;;;;20.60;41.90;98658.31;4922608;29;20445;-87
2022/06/20 11:13:23;;;;;;;10.00;2.95;;;;;;;20.74;42.50;98668.63;4956327;29;20050;-86
2022/06/20 11:16:15;;;;;;;10.38;2.95;;;;;;;20.68;41.62;98674.97;4956157;29;20047;-86
2022/06/20 11:18:59;;;;;;;11.20;2.50;;;;;;;20.42;39.58;98643.56;4923166;29;20529;-86
2022/06/20 11:21:52;;;;;;;9.18;2.47;;;;;;;20.42;39.08;98640.81;4938507;29;20122;-87
2022/06/20 11:24:38;;;;;;;8.45;2.45;;;;;;;20.55;40.51;98663.44;4939019;29;20442;-87
2022/06/20 11:27:05;;;;;;;9.75;2.67;;;;;;;20.59;40.36;98661.47;4956187;29;20102;-88
2022/06/20 11:32:17;;;;;;;13.23;2.50;;;;;;;20.42;41.28;98646.34;4955562;29;20059;-87
2022/06/20 11:35:14;;;;;;;14.63;2.67;;;;;;;20.54;41.17;98659.88;4938263;29;20039;-86
2022/06/20 11:38:04;;;;;;;9.32;2.65;;;;;;;20.31;41.00;98646.34;4956332;29;20075;-86
2022/06/20 11:40:56;;;;;;;11.50;3.63;;;;;;;20.35;42.52;98640.78;4955875;29;20061;-86
2022/06/20 11:43:36;;;;;;;13.45;3.65;;;;;;;20.58;43.29;98662.66;4938582;29;20077;-85
2022/06/20 11:46:41;;;;;;;11.15;3.60;;;;;;;20.54;43.20;98665.44;4954127;29;20051;-85
2022/06/20 11:49:40;;;;;;;10.32;4.28;;;;;;;20.45;50.59;98656.66;4955359;29;20042;-86
2022/06/20 11:52:12;;;;;;;21.58;4.80;;;;;;;20.51;53.99;98668.22;4954835;29;20067;-85
2022/06/20 11:55:11;;;;;;;18.88;5.43;;;;;;;20.39;56.20;98661.81;4922211;29;20061;-85
2022/06/20 11:58:03;;;;;;;18.08;5.13;;;;;;;20.50;57.03;98652.72;4953314;29;20050;-85
2022/06/20 12:00:42;;;;;;;16.70;4.50;;;;;;;20.20;56.70;98620.56;4955815;29;20043;-85
2022/06/20 12:03:34;;;;;;;17.42;4.90;;;;;;;20.23;56.92;98636.44;4956025;29;20055;-84
2022/06/20 12:06:37;;;;;;;17.25;5.00;;;;;;;20.70;56.29;98664.25;4940910;29;20094;-85
2022/06/20 12:09:16;;;;;;;14.88;4.30;;;;;;;20.64;55.90;98652.75;4915698;29;20048;-85
2022/06/20 12:12:10;;;;;;;13.73;4.85;;;;;;;20.74;56.86;98668.63;4901667;29;20466;-86
2022/06/20 12:14:38;;;;;;;16.92;4.90;;;;;;;20.57;56.64;98653.53;4902910;29;20143;-84
2022/06/20 12:17:28;;;;;;;14.88;5.03;;;;;;;20.49;57.02;98667.78;4904615;29;20040;-85
2022/06/20 12:23:21;;;;;;;21.17;5.10;;;;;;;20.21;58.36;98671.31;4894832;29;20044;-86
2022/06/20 12:26:11;;;;;;;12.90;4.70;;;;;;;20.09;57.81;98647.50;4903689;29;20502;-85
2022/06/20 12:28:45;;;;;;;22.90;4.85;;;;;;;20.23;58.31;98669.75;4923937;29;20445;-85
2022/06/20 12:31:19;;;;;;;23.30;4.80;;;;;;;20.01;58.59;98655.00;4881407;29;20131;-85
2022/06/20 12:34:16;;;;;;;21.10;4.72;;;;;;;20.18;58.33;98670.13;4894761;29;20056;-85
2022/06/20 12:36:54;;;;;;;18.65;5.22;;;;;;;20.03;58.82;98674.81;4891595;29;20410;-86
2022/06/20 12:39:27;;;;;;;16.30;5.18;;;;;;;19.79;59.48;98684.66;4909162;29;20506;-84
2022/06/20 12:42:18;;;;;;;13.88;4.85;;;;;;;19.80;59.42;98675.16;4908866;29;20047;-83
2022/06/20 12:45:15;;;;;;;18.30;5.28;;;;;;;19.66;59.86;98669.53;4912104;29;20062;-85
2022/06/20 12:48:09;;;;;;;13.68;5.15;;;;;;;19.39;60.54;98678.09;4940100;29;20130;-84
2022/06/20 12:50:41;;;;;;;20.90;5.32;;;;;;;19.49;60.79;98699.53;4933473;29;20035;-85
2022/06/20 12:53:20;;;;;;;12.45;4.90;;;;;;;19.53;60.76;98701.53;4917462;29;20055;-86
2022/06/20 12:55:53;;;;;;;20.40;4.80;;;;;;;19.74;60.07;98700.88;4934451;29;20043;-86
2022/06/20 12:58:36;;;;;;;18.25;4.85;;;;;;;19.82;59.60;98694.97;4930467;29;20063;-85
2022/06/20 13:01:14;;;;;;;17.75;5.13;;;;;;;19.82;60.31;98700.50;4935236;29;20508;-86
2022/06/20 13:04:25;;;;;;;20.10;5.72;;;;;;;19.83;59.24;98713.19;4951386;29;20101;-84
2022/06/20 13:07:01;;;;;;;16.20;4.63;;;;;;;19.78;59.21;98718.34;4935651;29;20600;-86
2022/06/20 13:09:39;;;;;;;31.80;5.45;;;;;;;19.74;58.91;98709.22;4947174;29;20054;-84
2022/06/20 13:12:27;;;;;;;22.83;5.47;;;;;;;19.64;58.77;98707.97;4951468;29;20460;-83
2022/06/20 13:15:30;;;;;;;24.88;5.15;;;;;;;19.77;59.27;98714.75;4953801;29;20050;-83
2022/06/20 13:18:11;;;;;;;26.92;5.28;;;;;;;19.83;58.47;98699.31;4935789;29;20043;-84
2022/06/20 13:21:19;;;;;;;24.83;6.25;;;;;;;19.90;58.70;98709.66;4940244;29;20063;-83
2022/06/20 13:24:00;;;;;;;24.50;5.70;;;;;;;20.06;58.05;98690.69;4941181;29;20036;-83
2022/06/20 13:26:35;;;;;;;15.27;6.53;;;;;;;19.98;57.30;98691.06;4931929;29;20130;-83
2022/06/20 13:29:25;;;;;;;15.77;5.60;;;;;;;19.79;57.78;98704.06;4948224;29;20039;-83
2022/06/20 13:32:00;;;;;;;22.90;6.90;;;;;;;19.84;58.72;98700.13;4951760;29;20067;-83
2022/06/20 13:34:48;;;;;;;12.27;5.63;;;;;;;20.08;57.79;98684.75;4933126;29;20133;-83